createdAt,value
2018-04-17T00:00:21.747Z,6.76
2018-04-17T00:06:22.528Z,7.35
2018-04-17T00:12:23.237Z,8.35
2018-04-17T00:16:23.956Z,8.2
2018-04-17T00:22:24.836Z,7.9
2018-04-17T00:26:25.515Z,7.98
2018-04-17T00:28:26.199Z,8.47
2018-04-17T00:32:27.232Z,7.69
2018-04-17T00:38:28.023Z,8.29
2018-04-17T00:42:29.177Z,7.94
2018-04-17T00:48:30.434Z,7.34
2018-04-17T00:52:31.253Z,7.54
2018-04-17T00:54:32.194Z,6.9
2018-04-17T00:58:33.022Z,7.29
2018-04-17T01:04:34.180Z,6.6
2018-04-17T01:08:34.883Z,7.03
2018-04-17T01:14:35.708Z,7.28
2018-04-17T01:20:36.462Z,7.67
2018-04-17T01:24:37.266Z,7.38
2018-04-17T01:30:38.036Z,6.76
2018-04-17T01:34:38.793Z,5.94
2018-04-17T01:36:39.596Z,6.96
2018-04-17T01:40:40.287Z,6.75
2018-04-17T01:46:41.065Z,5.99
2018-04-17T01:50:41.703Z,6.01
2018-04-17T01:56:42.447Z,6.85
2018-04-17T02:00:43.197Z,6.6
2018-04-17T02:02:43.870Z,6.67
2018-04-17T02:06:44.778Z,7.12
2018-04-17T02:12:45.499Z,8.02
2018-04-17T02:16:46.464Z,7.4
2018-04-17T02:22:47.217Z,7.59
2018-04-17T02:28:48.108Z,6.88
2018-04-17T02:32:48.864Z,7.62
2018-04-17T02:38:49.767Z,6.5
2018-04-17T02:42:50.504Z,7.01
2018-04-17T02:44:51.188Z,7.05
2018-04-17T02:48:51.872Z,6.58
2018-04-17T02:54:52.629Z,7.52
2018-04-17T02:58:53.295Z,7.37
2018-04-17T03:04:54.091Z,7.93
2018-04-17T03:08:54.985Z,7.3
2018-04-17T03:10:55.614Z,7.79
2018-04-17T03:14:56.410Z,6.85
2018-04-17T03:20:57.263Z,7.41
2018-04-17T03:24:58.249Z,7.04
2018-04-17T03:30:59.054Z,7.1
2018-04-17T03:36:59.953Z,7.47
2018-04-17T03:41:00.764Z,7.56
2018-04-17T03:47:01.817Z,7.47
2018-04-17T03:51:02.602Z,7.35
2018-04-17T03:53:03.399Z,8.39
2018-04-17T03:57:04.013Z,7.79
2018-04-17T04:03:04.734Z,7.78
2018-04-17T04:07:05.415Z,8.14
2018-04-17T04:13:06.207Z,8.13
2018-04-17T04:19:07.022Z,8.55
2018-04-17T04:23:08.040Z,8.46
2018-04-17T04:29:08.985Z,8.38
2018-04-17T04:33:09.910Z,8.07
2018-04-17T04:39:10.652Z,8.12
2018-04-17T04:45:11.718Z,8.24
2018-04-17T04:49:12.736Z,8.27
2018-04-17T04:55:13.535Z,8.92
2018-04-17T04:59:14.373Z,8.26
2018-04-17T05:01:15.176Z,9.84
2018-04-17T05:05:16.179Z,9.97
2018-04-17T05:11:16.934Z,9.48
2018-04-17T05:15:18.089Z,9.49
2018-04-17T05:21:18.883Z,10.75
2018-04-17T05:27:19.727Z,10.48
2018-04-17T05:31:20.493Z,10.73
2018-04-17T05:37:21.345Z,9.89
2018-04-17T05:41:22.107Z,9.23
2018-04-17T05:47:23.025Z,9.89
2018-04-17T05:53:23.773Z,10.7
2018-04-17T05:57:24.514Z,8.98
2018-04-17T06:03:25.289Z,8.62
2018-04-17T06:07:26.164Z,8.45
2018-04-17T06:09:26.817Z,10.07
2018-04-17T06:13:27.547Z,9.43
2018-04-17T06:19:28.269Z,10.91
2018-04-17T06:23:28.955Z,11.55
2018-04-17T06:29:29.819Z,11.78
2018-04-17T06:35:30.625Z,11.58
2018-04-17T06:39:36.848Z,11.32
2018-04-17T06:49:43.227Z,11.72
2018-04-17T06:49:43.294Z,13.01
2018-04-17T06:55:44.078Z,10.95
2018-04-17T07:01:44.884Z,13.24
2018-04-17T07:05:45.631Z,11.78
2018-04-17T07:11:46.456Z,12.59
2018-04-17T07:15:47.273Z,11.92
2018-04-17T07:17:48.091Z,12.57
2018-04-17T07:21:48.841Z,11.87
2018-04-17T07:27:49.643Z,11.8
2018-04-17T07:31:55.111Z,12.11
2018-04-17T07:37:56.196Z,12.91
2018-04-17T07:41:56.929Z,13.11
2018-04-17T07:43:57.696Z,12.41
2018-04-17T07:54:00.204Z,12.66
2018-04-17T07:54:00.325Z,12.53
2018-04-17T07:58:01.095Z,13.03
2018-04-17T08:04:02.143Z,13.44
2018-04-17T08:10:03.084Z,14.02
2018-04-17T08:14:09.349Z,13.76
2018-04-17T08:20:10.238Z,14.98
2018-04-17T08:24:11.068Z,14.33
2018-04-17T08:30:11.951Z,14.95
2018-04-17T08:36:12.700Z,15.83
2018-04-17T08:40:13.432Z,15.25
2018-04-17T08:46:14.261Z,14.99
2018-04-17T08:50:15.059Z,15.84
2018-04-17T08:52:15.730Z,15.48
2018-04-17T08:56:16.504Z,16.02
2018-04-17T09:02:17.496Z,13.58
2018-04-17T09:06:19.020Z,13.72
2018-04-17T09:12:19.818Z,15.62
2018-04-17T09:16:20.749Z,15.33
2018-04-17T09:18:21.578Z,17.4
2018-04-17T09:22:22.371Z,16.54
2018-04-17T09:28:23.019Z,18.08
2018-04-17T09:32:23.753Z,17.63
2018-04-17T09:38:24.639Z,18.71
2018-04-17T09:44:25.586Z,18.91
2018-04-17T09:48:26.392Z,18.5
2018-04-17T09:54:27.232Z,18.92
2018-04-17T09:58:28.047Z,17.88
2018-04-17T10:00:29.360Z,18.26
2018-04-17T10:04:30.051Z,18.43
2018-04-17T10:10:30.827Z,17.68
2018-04-17T10:14:31.555Z,17.59
2018-04-17T10:20:32.395Z,14.51
2018-04-17T10:24:33.127Z,14.9
2018-04-17T10:26:33.834Z,16.64
2018-04-17T10:30:34.807Z,15.08
2018-04-17T10:36:35.458Z,13.88
2018-04-17T10:40:36.227Z,13.1
2018-04-17T10:46:37.035Z,14.61
2018-04-17T10:52:37.735Z,12.72
2018-04-17T10:56:38.565Z,12.43
2018-04-17T11:02:39.332Z,10.87
2018-04-17T11:06:40.071Z,11.55
2018-04-17T11:08:40.753Z,9.91
2018-04-17T11:12:41.955Z,8.8
2018-04-17T11:18:42.699Z,9.64
2018-04-17T11:22:43.631Z,8.31
2018-04-17T11:28:44.378Z,9.62
2018-04-17T11:34:45.159Z,8.72
2018-04-17T11:38:46.085Z,7.49
2018-04-17T11:44:46.925Z,8.02
2018-04-17T11:48:47.764Z,7.54
2018-04-17T11:54:48.561Z,5.82
2018-04-17T12:00:49.664Z,5.13
2018-04-17T12:04:50.545Z,5.04
2018-04-17T12:10:51.399Z,4.9
2018-04-17T12:14:52.138Z,5.57
2018-04-17T12:16:52.905Z,5.24
2018-04-17T12:20:53.818Z,4.95
2018-04-17T12:26:54.565Z,5.06
2018-04-17T12:30:55.315Z,4.17
2018-04-17T12:36:56.090Z,3.93
2018-04-17T12:42:56.958Z,4.45
2018-04-17T12:46:57.734Z,4.23
2018-04-17T12:52:59.099Z,3.84
2018-04-17T12:56:59.897Z,3.87
2018-04-17T12:59:00.883Z,4.25
2018-04-17T13:03:01.693Z,3.83
2018-04-17T13:09:02.546Z,4.61
2018-04-17T13:13:03.421Z,5.37
2018-04-17T13:19:04.298Z,4.97
2018-04-17T13:23:05.376Z,4.41
2018-04-17T13:25:06.202Z,4.83
2018-04-17T13:29:07.303Z,4.56
2018-04-17T13:35:08.125Z,4.88
2018-04-17T13:39:09.061Z,5.21
2018-04-17T13:45:10.390Z,5.08
2018-04-17T13:51:11.339Z,6.08
2018-04-17T13:55:12.147Z,6.23
2018-04-17T14:01:13.828Z,5.96
2018-04-17T14:05:14.801Z,5.27
2018-04-17T14:07:15.510Z,6.9
2018-04-17T14:11:16.348Z,6.97
2018-04-17T14:17:17.296Z,6.02
2018-04-17T14:21:17.880Z,5.76
2018-04-17T14:27:18.827Z,4.67
2018-04-17T14:31:19.610Z,4.2
2018-04-17T14:33:20.494Z,5.31
2018-04-17T14:37:21.267Z,4.67
2018-04-17T14:43:22.142Z,4.89
2018-04-17T14:47:22.819Z,5.04
2018-04-17T14:53:24.770Z,4.84
2018-04-17T14:59:25.523Z,3.99
2018-04-17T15:03:26.264Z,3.81
2018-04-17T15:09:27.185Z,4.69
2018-04-17T15:13:27.972Z,2.45
2018-04-17T15:15:29.208Z,4.03
2018-04-17T15:19:30.157Z,4.03
2018-04-17T15:25:30.900Z,3.33
2018-04-17T15:29:31.826Z,3.65
2018-04-17T15:35:32.641Z,4.57
2018-04-17T15:41:33.485Z,3.96
2018-04-17T15:45:34.402Z,3.92
2018-04-17T15:51:35.143Z,3.53
2018-04-17T15:55:35.944Z,3.3
2018-04-17T16:01:36.784Z,3.47
2018-04-17T16:07:37.450Z,4.01
2018-04-17T16:11:38.358Z,4.16
2018-04-17T16:17:39.137Z,4.57
2018-04-17T16:21:39.974Z,4.9
2018-04-17T16:23:40.710Z,5.4
2018-04-17T16:27:41.583Z,4.6
2018-04-17T16:33:42.391Z,5.4
2018-04-17T16:37:43.376Z,5.67
2018-04-17T16:43:44.378Z,5.54
2018-04-17T16:49:45.222Z,6.49
2018-04-17T16:53:45.959Z,6.02
2018-04-17T16:59:46.998Z,6.6
2018-04-17T17:03:48.027Z,6.65
2018-04-17T17:05:49.189Z,7.11
2018-04-17T17:09:50.076Z,6.64
2018-04-17T17:15:50.910Z,7.82
2018-04-17T17:19:51.669Z,7.43
2018-04-17T17:25:52.523Z,8.03
2018-04-17T17:29:53.352Z,7.09
2018-04-17T17:31:54.322Z,7.96
2018-04-17T17:35:55.078Z,7.4
2018-04-17T17:41:56.167Z,9.09
2018-04-17T17:45:56.933Z,8.91
2018-04-17T17:51:57.787Z,8.69
2018-04-17T17:57:58.528Z,9.62
2018-04-17T18:01:59.402Z,9.08
2018-04-17T18:08:00.275Z,7.93
2018-04-17T18:12:01.174Z,8.59
2018-04-17T18:14:01.847Z,11.99
2018-04-17T18:18:02.787Z,11.95
2018-04-17T18:24:03.681Z,12.05
2018-04-17T18:28:04.428Z,10.71
2018-04-17T18:34:05.228Z,9.03
2018-04-17T18:40:05.978Z,8.71
2018-04-17T18:44:06.862Z,8.08
2018-04-17T18:50:07.628Z,8.58
2018-04-17T18:54:08.541Z,8.27
2018-04-17T19:00:09.727Z,7.75
2018-04-17T19:06:10.619Z,8.31
2018-04-17T19:10:11.447Z,7.69
2018-04-17T19:16:12.236Z,7.82
2018-04-17T19:20:13.013Z,8.27
2018-04-17T19:22:13.785Z,7.87
2018-04-17T19:26:14.559Z,7.37
2018-04-17T19:32:15.429Z,7.55
2018-04-17T19:36:16.065Z,7.52
2018-04-17T19:42:16.889Z,7.78
2018-04-17T19:48:17.798Z,7.11
2018-04-17T19:52:18.708Z,7.03
2018-04-17T19:58:19.735Z,8.13
2018-04-17T20:02:20.716Z,7.53
2018-04-17T20:04:21.699Z,6.72
2018-04-17T20:08:22.640Z,6.97
2018-04-17T20:14:23.454Z,6.27
2018-04-17T20:18:24.636Z,6.88
2018-04-17T20:24:25.440Z,6.82
2018-04-17T20:28:26.355Z,6.05
2018-04-17T20:30:27.442Z,6.62
2018-04-17T20:34:28.215Z,6.12
2018-04-17T20:40:28.973Z,6.1
2018-04-17T20:44:29.843Z,5.82
2018-04-17T20:50:31.153Z,6.54
2018-04-17T20:56:31.937Z,7.7
2018-04-17T21:00:33.096Z,6.91
2018-04-17T21:06:33.894Z,10.4
2018-04-17T21:10:34.900Z,10.73
2018-04-17T21:12:35.679Z,10.31
2018-04-17T21:16:36.513Z,10.45
2018-04-17T21:22:37.335Z,7.96
2018-04-17T21:26:38.196Z,8.22
2018-04-17T21:32:39.041Z,7.87
2018-04-17T21:36:39.833Z,7.93
2018-04-17T21:38:40.870Z,7.42
2018-04-17T21:42:42.004Z,7.69
2018-04-17T21:48:42.783Z,6.84
2018-04-17T21:52:43.533Z,6.7
2018-04-17T21:58:44.579Z,6.55
2018-04-17T22:04:45.456Z,6.45
2018-04-17T22:08:46.195Z,5.42
2018-04-17T22:14:52.690Z,6.07
2018-04-17T22:18:53.854Z,6.15
2018-04-17T22:24:54.582Z,5.61
2018-04-17T22:30:55.321Z,5.63
2018-04-17T22:34:56.025Z,5.6
2018-04-17T22:40:56.835Z,5.8
2018-04-17T22:44:57.543Z,5.2
2018-04-17T22:46:58.286Z,5.33
2018-04-17T22:50:58.977Z,5.02
2018-04-17T22:56:59.676Z,5.36
2018-04-17T23:01:00.435Z,4.61
2018-04-17T23:07:01.178Z,5.34
2018-04-17T23:13:02.116Z,4.23
2018-04-17T23:17:02.890Z,4.46
2018-04-17T23:23:03.622Z,4.74
2018-04-17T23:27:04.379Z,4.31
2018-04-17T23:29:05.115Z,4.41
2018-04-17T23:33:06.040Z,4.3
2018-04-17T23:39:06.734Z,4.14
2018-04-17T23:43:07.599Z,4.39
2018-04-17T23:49:08.437Z,4.5
2018-04-17T23:53:09.507Z,4.54
2018-04-17T23:55:10.195Z,4.3
2018-04-17T23:59:10.974Z,4.45
